Portada
METAR-TAF:

METAR-TAF

Aeroports :

Effingham County Memorial Airport

Effingham, Illinois, Estats Units d'Amèrica

latitud: 39-04-14N, longitud: 088-32-00W, altitud: 179 m

Observació

L'informe es va fer fa 15 minuts, a les 23:15 UTC
Vent 3 kt del Est
Temperatura 20°C
Humitat 100%
Pressió 1013 hPa
Visibilitat: 16.1 km
Cel clar

METAR: K1H2 242315Z AUTO 10003KT 10SM CLR 20/20 A2991 RMK AO2 T02010201

Hora: 18:30 (23:30 UTC)


TAF: manca

Observacions i pronòstics meteorològics de més de 4000 aeroports (METAR i TAF).

Les estacions disponibles són els punts grocs i vermells al mapa.

Posi el ratolí al punt desitjat per veure el nom de l'estació.

Feu clic per veure les observacions i els pronòstics meteorològics.

Per canviar el mapa: feu clic els botons verds amb una creu de color negre per apropar; al botó verd amb un guió per allunyar la imatge; o en les fletxes verdes per a mapes adjacents.


METAR-TAF: